createdAt,value
2022-10-28T00:04:42.439Z,100.00
2022-10-28T00:09:45.336Z,100.00
2022-10-28T00:14:48.313Z,100.00
2022-10-28T00:19:52.621Z,100.00
2022-10-28T00:24:55.759Z,100.00
2022-10-28T00:29:58.786Z,100.00
2022-10-28T00:35:03.325Z,100.00
2022-10-28T00:40:07.169Z,100.00
2022-10-28T00:45:11.492Z,100.00
2022-10-28T00:50:36.364Z,100.00
2022-10-28T00:55:39.777Z,100.00
2022-10-28T01:00:42.918Z,100.00
2022-10-28T01:05:49.360Z,100.00
2022-10-28T01:11:25.129Z,100.00
2022-10-28T01:16:35.729Z,100.00
2022-10-28T01:22:07.207Z,100.00
2022-10-28T01:27:26.321Z,100.00
2022-10-28T01:32:39.722Z,100.00
2022-10-28T01:37:50.795Z,100.00
2022-10-28T01:43:01.206Z,100.00
2022-10-28T01:48:11.206Z,100.00
2022-10-28T01:53:19.597Z,100.00
2022-10-28T01:58:27.688Z,100.00
2022-10-28T02:03:33.162Z,100.00
2022-10-28T02:08:52.019Z,100.00
2022-10-28T02:14:05.905Z,100.00
2022-10-28T02:19:17.046Z,100.00
2022-10-28T02:24:25.293Z,100.00
2022-10-28T02:29:34.479Z,100.00
2022-10-28T02:34:44.242Z,100.00
2022-10-28T02:39:53.572Z,100.00
2022-10-28T02:45:01.430Z,100.00
2022-10-28T02:50:09.987Z,100.00
2022-10-28T02:55:13.265Z,100.00
2022-10-28T03:00:18.802Z,100.00
2022-10-28T03:05:23.217Z,100.00
2022-10-28T03:10:26.355Z,100.00
2022-10-28T03:15:29.333Z,100.00
2022-10-28T03:20:33.682Z,100.00
2022-10-28T03:25:36.898Z,100.00
2022-10-28T03:30:40.074Z,100.00
2022-10-28T03:35:45.628Z,100.00
2022-10-28T03:40:49.491Z,100.00
2022-10-28T03:45:52.615Z,100.00
2022-10-28T03:50:57.201Z,100.00
2022-10-28T03:56:03.841Z,100.00
2022-10-28T04:01:06.798Z,100.00
2022-10-28T04:06:11.425Z,100.00
2022-10-28T04:11:14.478Z,100.00
2022-10-28T04:16:17.413Z,100.00
2022-10-28T04:21:21.961Z,100.00
2022-10-28T04:26:25.038Z,100.00
2022-10-28T04:31:28.092Z,100.00
2022-10-28T04:36:32.498Z,100.00
2022-10-28T04:41:35.552Z,100.00
2022-10-28T04:46:38.447Z,100.00
2022-10-28T04:51:42.919Z,100.00
2022-10-28T04:56:46.031Z,100.00
2022-10-28T05:01:49.059Z,100.00
2022-10-28T05:07:12.798Z,100.00
2022-10-28T05:12:15.861Z,100.00
2022-10-28T05:17:18.979Z,100.00
2022-10-28T05:22:23.226Z,100.00
2022-10-28T05:27:27.062Z,100.00
2022-10-28T05:32:29.973Z,100.00
2022-10-28T05:37:34.610Z,100.00
2022-10-28T05:42:43.472Z,100.00
2022-10-28T05:47:47.198Z,100.00
2022-10-28T05:52:53.445Z,100.00
2022-10-28T05:57:57.294Z,100.00
2022-10-28T06:03:06.930Z,100.00
2022-10-28T06:08:12.368Z,100.00
2022-10-28T06:13:14.027Z,100.00
2022-10-28T06:18:18.958Z,100.00
2022-10-28T06:23:24.295Z,100.00
2022-10-28T06:28:27.900Z,100.00
2022-10-28T06:33:31.568Z,100.00
2022-10-28T06:38:36.046Z,100.00
2022-10-28T06:43:39.010Z,100.00
2022-10-28T06:48:43.546Z,100.00
2022-10-28T06:53:51.545Z,100.00
2022-10-28T06:58:55.899Z,100.00
2022-10-28T07:03:59.318Z,100.00
2022-10-28T07:09:04.012Z,100.00
2022-10-28T07:14:07.252Z,100.00
2022-10-28T07:19:10.276Z,100.00
2022-10-28T07:24:14.787Z,100.00
2022-10-28T07:29:18.185Z,100.00
2022-10-28T07:34:26.013Z,100.00
2022-10-28T07:39:32.210Z,100.00
2022-10-28T07:44:35.306Z,100.00
2022-10-28T07:49:38.351Z,100.00
2022-10-28T07:54:42.692Z,100.00
2022-10-28T07:59:45.886Z,100.00
2022-10-28T08:04:49.065Z,100.00
2022-10-28T08:09:54.784Z,100.00
2022-10-28T08:14:57.930Z,100.00
2022-10-28T08:20:00.931Z,100.00
2022-10-28T08:25:05.870Z,100.00
2022-10-28T08:30:10.062Z,100.00
2022-10-28T08:35:13.193Z,100.00
2022-10-28T08:40:17.680Z,100.00
2022-10-28T08:45:32.707Z,100.00
2022-10-28T08:50:47.129Z,100.00
2022-10-28T08:55:54.620Z,100.00
2022-10-28T09:01:00.266Z,100.00
2022-10-28T09:06:05.376Z,100.00
2022-10-28T09:11:27.292Z,100.00
2022-10-28T09:16:43.011Z,100.00
2022-10-28T09:21:49.441Z,100.00
2022-10-28T09:27:03.708Z,100.00
2022-10-28T09:32:16.762Z,100.00
2022-10-28T09:37:23.964Z,100.00
2022-10-28T09:42:32.233Z,100.00
2022-10-28T09:47:41.648Z,100.00
2022-10-28T09:53:00.318Z,100.00
2022-10-28T09:58:06.592Z,100.00
2022-10-28T10:03:09.882Z,100.00
2022-10-28T10:08:16.377Z,100.00
2022-10-28T10:13:25.034Z,100.00
2022-10-28T10:18:32.845Z,100.00
2022-10-28T10:28:49.587Z,98.37
2022-10-28T10:33:55.473Z,98.61
2022-10-28T10:39:00.249Z,97.42
2022-10-28T10:44:26.079Z,94.81
2022-10-28T10:49:30.415Z,94.40
2022-10-28T10:54:34.597Z,94.83
2022-10-28T10:59:39.299Z,94.55
2022-10-28T11:04:42.385Z,94.17
2022-10-28T11:09:50.548Z,93.91
2022-10-28T11:15:00.371Z,94.38
2022-10-28T11:20:25.068Z,93.30
2022-10-28T11:25:37.296Z,93.68
2022-10-28T11:30:54.089Z,93.03
2022-10-28T11:36:05.111Z,93.08
2022-10-28T11:41:18.804Z,92.87
2022-10-28T11:46:43.499Z,93.11
2022-10-28T11:51:53.234Z,93.45
2022-10-28T11:57:02.987Z,93.13
2022-10-28T12:02:24.344Z,92.89
2022-10-28T12:08:00.165Z,92.51
2022-10-28T12:13:12.932Z,93.71
2022-10-28T12:18:25.045Z,93.85
2022-10-28T12:23:30.878Z,93.41
2022-10-28T12:28:39.247Z,93.36
2022-10-28T12:33:47.340Z,93.93
2022-10-28T12:38:58.637Z,94.09
2022-10-28T12:44:06.397Z,92.92
2022-10-28T12:49:19.158Z,93.42
2022-10-28T12:54:29.741Z,91.66
2022-10-28T12:59:39.051Z,93.02
2022-10-28T13:04:43.638Z,93.69
2022-10-28T13:09:58.969Z,92.30
2022-10-28T13:15:32.782Z,92.64
2022-10-28T13:20:49.229Z,92.11
2022-10-28T13:26:00.809Z,92.77
2022-10-28T13:31:06.162Z,92.90
2022-10-28T13:36:18.592Z,91.87
2022-10-28T13:41:34.586Z,91.31
2022-10-28T13:47:06.971Z,90.63
2022-10-28T13:52:22.319Z,91.90
2022-10-28T13:57:30.034Z,88.72
2022-10-28T14:02:38.457Z,91.17
2022-10-28T14:07:54.737Z,88.85
2022-10-28T14:13:00.774Z,90.50
2022-10-28T14:18:22.355Z,91.94
2022-10-28T14:24:06.024Z,91.34
2022-10-28T14:34:45.155Z,93.16
2022-10-28T14:40:07.109Z,93.89
2022-10-28T14:45:24.311Z,94.43
2022-10-28T14:50:39.184Z,94.69
2022-10-28T14:55:46.900Z,95.63
2022-10-28T15:01:01.803Z,96.04
2022-10-28T15:06:24.851Z,96.01
2022-10-28T15:11:27.907Z,96.91
2022-10-28T15:16:30.978Z,97.17
2022-10-28T15:21:35.425Z,97.00
2022-10-28T15:26:38.526Z,97.82
2022-10-28T15:32:06.727Z,98.36
2022-10-28T15:37:12.122Z,98.93
2022-10-28T15:42:32.686Z,99.27
2022-10-28T15:47:38.445Z,99.56
2022-10-28T15:52:44.787Z,99.51
2022-10-28T15:57:50.351Z,100.00
2022-10-28T16:02:58.471Z,100.00
2022-10-28T16:08:06.883Z,100.00
2022-10-28T16:13:18.680Z,100.00
2022-10-28T16:18:22.596Z,100.00
2022-10-28T16:23:34.119Z,100.00
2022-10-28T16:28:38.140Z,100.00
2022-10-28T16:33:43.709Z,100.00
2022-10-28T16:38:48.204Z,100.00
2022-10-28T16:43:51.366Z,100.00
2022-10-28T16:48:54.482Z,100.00
2022-10-28T16:54:01.648Z,100.00
2022-10-28T16:59:04.829Z,100.00
2022-10-28T17:04:09.409Z,100.00
2022-10-28T17:09:13.919Z,100.00
2022-10-28T17:14:17.027Z,100.00
2022-10-28T17:19:20.421Z,100.00
2022-10-28T17:24:25.003Z,100.00
2022-10-28T17:29:28.452Z,100.00
2022-10-28T17:34:31.577Z,100.00
2022-10-28T17:39:36.009Z,100.00
2022-10-28T17:44:39.046Z,100.00
2022-10-28T17:49:42.488Z,100.00
2022-10-28T17:54:46.889Z,100.00
2022-10-28T17:59:50.008Z,100.00
2022-10-28T18:04:53.050Z,100.00
2022-10-28T18:09:57.478Z,100.00
2022-10-28T18:15:00.951Z,100.00
2022-10-28T18:20:04.237Z,100.00
2022-10-28T18:25:10.195Z,100.00
2022-10-28T18:30:13.768Z,100.00
2022-10-28T18:35:17.269Z,100.00
2022-10-28T18:40:21.745Z,100.00
2022-10-28T18:45:25.107Z,100.00
2022-10-28T18:50:28.118Z,100.00
2022-10-28T18:55:32.735Z,100.00
2022-10-28T19:00:36.395Z,100.00
2022-10-28T19:05:39.588Z,100.00
2022-10-28T19:10:44.083Z,100.00
2022-10-28T19:15:47.729Z,100.00
2022-10-28T19:20:50.832Z,100.00
2022-10-28T19:25:58.877Z,100.00
2022-10-28T19:31:03.048Z,100.00
2022-10-28T19:36:08.281Z,100.00
2022-10-28T19:41:14.512Z,100.00
2022-10-28T19:46:19.596Z,100.00
2022-10-28T19:51:25.073Z,100.00
2022-10-28T19:56:31.531Z,100.00
2022-10-28T20:01:36.597Z,100.00
2022-10-28T20:06:41.203Z,100.00
2022-10-28T20:11:45.595Z,100.00
2022-10-28T20:16:49.261Z,100.00
2022-10-28T20:21:52.503Z,100.00
2022-10-28T20:26:57.437Z,100.00
2022-10-28T20:32:00.516Z,100.00
2022-10-28T20:37:03.620Z,100.00
2022-10-28T20:42:07.948Z,100.00
2022-10-28T20:47:11.049Z,100.00
2022-10-28T20:52:16.608Z,100.00
2022-10-28T20:57:21.029Z,100.00
2022-10-28T21:02:24.357Z,100.00
2022-10-28T21:07:27.578Z,100.00
2022-10-28T21:12:31.986Z,100.00
2022-10-28T21:17:35.049Z,100.00
2022-10-28T21:22:38.088Z,100.00
2022-10-28T21:27:42.713Z,100.00
2022-10-28T21:32:46.347Z,100.00
2022-10-28T21:37:49.488Z,100.00
2022-10-28T21:42:53.955Z,100.00
2022-10-28T21:47:57.763Z,100.00
2022-10-28T21:53:04.279Z,100.00
2022-10-28T21:58:09.419Z,100.00
2022-10-28T22:03:14.351Z,100.00
2022-10-28T22:08:17.899Z,100.00
2022-10-28T22:13:22.600Z,100.00
2022-10-28T22:18:25.905Z,100.00
2022-10-28T22:23:29.165Z,100.00
2022-10-28T22:28:34.080Z,100.00
2022-10-28T22:33:37.609Z,100.00
2022-10-28T22:38:41.321Z,100.00
2022-10-28T22:43:47.365Z,100.00
2022-10-28T22:48:50.934Z,100.00
2022-10-28T22:53:54.034Z,100.00
2022-10-28T22:59:00.029Z,100.00
2022-10-28T23:04:03.048Z,100.00
2022-10-28T23:09:06.187Z,100.00
2022-10-28T23:14:10.575Z,100.00
2022-10-28T23:19:13.563Z,100.00
2022-10-28T23:24:16.490Z,100.00
2022-10-28T23:29:21.009Z,100.00
2022-10-28T23:34:24.250Z,100.00
2022-10-28T23:39:27.279Z,100.00
2022-10-28T23:44:31.606Z,100.00
2022-10-28T23:49:34.721Z,100.00
2022-10-28T23:54:38.294Z,100.00
2022-10-28T23:59:42.734Z,100.00
